createdAt,value
2018-04-10T00:01:07.675Z,58.75
2018-04-10T00:03:37.974Z,59.07
2018-04-10T00:06:07.865Z,59.24
2018-04-10T00:08:37.195Z,59.92
2018-04-10T00:11:06.195Z,60.31
2018-04-10T00:13:36.908Z,60.08
2018-04-10T00:16:05.660Z,60.59
2018-04-10T00:18:34.328Z,60.81
2018-04-10T00:21:04.160Z,60.69
2018-04-10T00:23:32.784Z,60.65
2018-04-10T00:26:02.784Z,60.67
2018-04-10T00:28:32.105Z,60.44
2018-04-10T00:31:01.232Z,60.81
2018-04-10T00:33:30.319Z,61.28
2018-04-10T00:35:59.599Z,61.70
2018-04-10T00:38:28.111Z,61.71
2018-04-10T00:40:57.093Z,61.51
2018-04-10T00:43:26.932Z,61.11
2018-04-10T00:45:56.496Z,61.07
2018-04-10T00:48:24.916Z,61.48
2018-04-10T00:50:55.331Z,62.10
2018-04-10T00:53:36.370Z,61.93
2018-04-10T00:56:05.930Z,61.60
2018-04-10T00:58:35.174Z,61.71
2018-04-10T01:01:03.531Z,61.74
2018-04-10T01:03:32.073Z,61.84
2018-04-10T01:06:00.479Z,61.92
2018-04-10T01:08:29.881Z,61.65
2018-04-10T01:10:58.235Z,62.44
2018-04-10T01:13:27.294Z,62.16
2018-04-10T01:15:56.465Z,62.10
2018-04-10T01:18:24.863Z,62.60
2018-04-10T01:20:54.648Z,63.00
2018-04-10T01:23:23.039Z,63.05
2018-04-10T01:25:51.424Z,64.19
2018-04-10T01:28:20.406Z,63.96
2018-04-10T01:30:49.512Z,63.92
2018-04-10T01:33:18.769Z,64.30
2018-04-10T01:35:48.776Z,64.55
2018-04-10T01:38:18.060Z,64.12
2018-04-10T01:40:47.351Z,63.70
2018-04-10T01:43:17.181Z,64.11
2018-04-10T01:45:46.275Z,63.97
2018-04-10T01:48:15.521Z,64.37
2018-04-10T01:50:45.505Z,64.31
2018-04-10T01:53:14.229Z,64.10
2018-04-10T01:55:44.252Z,64.22
2018-04-10T01:58:13.120Z,63.80
2018-04-10T02:00:42.491Z,63.79
2018-04-10T02:03:11.586Z,64.31
2018-04-10T02:05:40.064Z,64.55
2018-04-10T02:08:09.247Z,64.92
2018-04-10T02:10:38.732Z,64.62
2018-04-10T02:13:07.130Z,64.71
2018-04-10T02:15:36.007Z,65.04
2018-04-10T02:18:05.094Z,64.75
2018-04-10T02:20:34.327Z,64.79
2018-04-10T02:23:02.716Z,64.69
2018-04-10T02:25:32.000Z,64.36
2018-04-10T02:28:00.386Z,64.34
2018-04-10T02:30:28.912Z,64.30
2018-04-10T02:32:57.339Z,64.32
2018-04-10T02:35:27.198Z,64.77
2018-04-10T02:37:57.471Z,64.87
2018-04-10T02:40:26.010Z,64.63
2018-04-10T02:42:55.175Z,64.88
2018-04-10T02:45:23.823Z,64.85
2018-04-10T02:47:53.045Z,64.84
2018-04-10T02:50:22.142Z,64.65
2018-04-10T02:52:52.551Z,64.17
2018-04-10T02:55:20.905Z,64.41
2018-04-10T02:57:49.711Z,64.42
2018-04-10T03:00:18.081Z,64.29
2018-04-10T03:02:46.858Z,64.56
2018-04-10T03:05:15.859Z,64.67
2018-04-10T03:07:45.719Z,64.73
2018-04-10T03:10:15.916Z,64.35
2018-04-10T03:12:44.251Z,64.24
2018-04-10T03:15:12.656Z,64.78
2018-04-10T03:17:41.814Z,64.79
2018-04-10T03:20:11.038Z,64.96
2018-04-10T03:22:39.451Z,65.17
2018-04-10T03:25:08.733Z,66.39
2018-04-10T03:27:38.056Z,66.04
2018-04-10T03:30:07.293Z,65.77
2018-04-10T03:32:36.898Z,65.48
2018-04-10T03:35:05.406Z,65.52
2018-04-10T03:37:33.841Z,65.49
2018-04-10T03:40:03.071Z,65.19
2018-04-10T03:42:31.489Z,66.79
2018-04-10T03:45:00.403Z,66.54
2018-04-10T03:47:30.477Z,66.58
2018-04-10T03:49:59.213Z,66.47
2018-04-10T03:52:27.603Z,66.73
2018-04-10T03:54:56.622Z,66.57
2018-04-10T03:57:25.562Z,66.25
2018-04-10T03:59:54.205Z,65.90
2018-04-10T04:02:23.163Z,66.08
2018-04-10T04:04:51.562Z,66.67
2018-04-10T04:07:20.055Z,67.52
2018-04-10T04:09:49.194Z,67.41
2018-04-10T04:12:17.822Z,67.09
2018-04-10T04:14:47.177Z,66.94
2018-04-10T04:17:27.270Z,66.79
2018-04-10T04:20:08.526Z,67.13
2018-04-10T04:22:40.741Z,68.28
2018-04-10T04:25:10.954Z,69.81
2018-04-10T04:27:39.356Z,69.56
2018-04-10T04:30:07.720Z,68.82
2018-04-10T04:32:36.100Z,70.05
2018-04-10T04:35:04.473Z,69.75
2018-04-10T04:37:32.799Z,69.45
2018-04-10T04:40:02.212Z,69.01
2018-04-10T04:42:31.606Z,69.31
2018-04-10T04:45:00.370Z,69.31
2018-04-10T04:47:28.741Z,68.85
2018-04-10T04:49:58.970Z,68.87
2018-04-10T04:52:28.086Z,68.38
2018-04-10T04:54:56.441Z,68.68
2018-04-10T04:57:24.822Z,69.01
2018-04-10T04:59:53.189Z,69.11
2018-04-10T05:02:21.591Z,69.51
2018-04-10T05:04:50.045Z,69.30
2018-04-10T05:07:19.052Z,69.43
2018-04-10T05:09:47.427Z,69.54
2018-04-10T05:12:15.801Z,69.80
2018-04-10T05:14:44.220Z,70.00
2018-04-10T05:17:14.064Z,69.83
2018-04-10T05:19:42.439Z,70.19
2018-04-10T05:22:11.036Z,70.99
2018-04-10T05:24:41.561Z,70.68
2018-04-10T05:27:10.581Z,70.76
2018-04-10T05:29:38.988Z,70.12
2018-04-10T05:32:07.404Z,70.12
2018-04-10T05:34:35.773Z,69.84
2018-04-10T05:37:04.784Z,69.53
2018-04-10T05:39:34.623Z,70.30
2018-04-10T05:42:02.985Z,69.75
2018-04-10T05:44:32.037Z,69.54
2018-04-10T05:47:02.085Z,69.70
2018-04-10T05:49:31.365Z,69.33
2018-04-10T05:52:00.234Z,69.38
2018-04-10T05:54:28.917Z,69.14
2018-04-10T05:56:59.126Z,69.61
2018-04-10T05:59:27.522Z,69.18
2018-04-10T06:01:56.608Z,69.37
2018-04-10T06:04:25.214Z,69.08
2018-04-10T06:06:54.500Z,69.23
2018-04-10T06:09:24.855Z,69.11
2018-04-10T06:11:54.074Z,68.86
2018-04-10T06:14:23.985Z,68.23
2018-04-10T06:16:53.044Z,68.24
2018-04-10T06:19:22.603Z,68.04
2018-04-10T06:21:51.525Z,68.01
2018-04-10T06:24:20.305Z,67.95
2018-04-10T06:26:49.724Z,68.32
2018-04-10T06:29:18.421Z,68.01
2018-04-10T06:31:46.868Z,68.81
2018-04-10T06:34:15.671Z,69.13
2018-04-10T06:36:44.936Z,69.49
2018-04-10T06:39:13.264Z,69.58
2018-04-10T06:41:43.442Z,69.70
2018-04-10T06:44:12.725Z,69.65
2018-04-10T06:46:43.209Z,69.62
2018-04-10T06:49:11.622Z,69.76
2018-04-10T06:51:40.902Z,69.62
2018-04-10T06:54:09.285Z,69.69
2018-04-10T06:56:38.430Z,69.87
2018-04-10T06:59:07.233Z,69.44
2018-04-10T07:01:35.638Z,69.69
2018-04-10T07:04:04.832Z,69.93
2018-04-10T07:06:34.054Z,69.70
2018-04-10T07:09:04.734Z,70.00
2018-04-10T07:11:33.927Z,69.26
2018-04-10T07:14:02.885Z,69.78
2018-04-10T07:16:31.259Z,69.68
2018-04-10T07:18:59.820Z,68.96
2018-04-10T07:21:28.189Z,67.82
2018-04-10T07:23:56.554Z,68.13
2018-04-10T07:26:24.896Z,67.96
2018-04-10T07:28:53.264Z,67.42
2018-04-10T07:31:21.653Z,66.79
2018-04-10T07:33:50.680Z,65.85
2018-04-10T07:36:19.049Z,65.18
2018-04-10T07:38:47.413Z,64.84
2018-04-10T07:41:16.008Z,64.23
2018-04-10T07:43:45.346Z,64.20
2018-04-10T07:46:13.727Z,64.20
2018-04-10T07:48:43.037Z,64.19
2018-04-10T07:51:11.364Z,64.01
2018-04-10T07:53:39.753Z,63.60
2018-04-10T07:56:08.299Z,62.93
2018-04-10T07:58:37.309Z,61.96
2018-04-10T08:01:05.628Z,62.79
2018-04-10T08:03:34.274Z,61.81
2018-04-10T08:06:03.076Z,60.88
2018-04-10T08:08:32.126Z,60.76
2018-04-10T08:11:00.861Z,59.83
2018-04-10T08:13:30.920Z,59.88
2018-04-10T08:15:59.284Z,60.14
2018-04-10T08:18:27.615Z,58.53
2018-04-10T08:20:56.214Z,59.73
2018-04-10T08:23:25.273Z,59.84
2018-04-10T08:25:53.630Z,59.21
2018-04-10T08:28:21.994Z,58.52
2018-04-10T08:30:50.476Z,57.13
2018-04-10T08:33:19.228Z,57.28
2018-04-10T08:35:48.525Z,57.05
2018-04-10T08:38:16.866Z,55.12
2018-04-10T08:40:46.153Z,54.39
2018-04-10T08:43:15.227Z,53.98
2018-04-10T08:45:43.620Z,53.55
2018-04-10T08:48:12.367Z,53.76
2018-04-10T08:50:41.579Z,53.30
2018-04-10T08:53:09.918Z,53.05
2018-04-10T08:55:38.278Z,51.68
2018-04-10T08:58:06.671Z,51.13
2018-04-10T09:00:35.016Z,51.03
2018-04-10T09:03:03.356Z,50.17
2018-04-10T09:05:33.382Z,50.39
2018-04-10T09:08:01.714Z,50.67
2018-04-10T09:10:30.076Z,51.44
2018-04-10T09:12:58.428Z,50.29
2018-04-10T09:15:26.793Z,49.63
2018-04-10T09:17:55.118Z,51.04
2018-04-10T09:20:23.488Z,50.30
2018-04-10T09:22:51.813Z,49.17
2018-04-10T09:25:20.176Z,48.85
2018-04-10T09:27:48.653Z,46.85
2018-04-10T09:30:17.568Z,47.78
2018-04-10T09:32:45.900Z,48.15
2018-04-10T09:35:14.258Z,48.34
2018-04-10T09:37:43.169Z,47.91
2018-04-10T09:40:11.804Z,48.82
2018-04-10T09:42:40.133Z,47.94
2018-04-10T09:45:08.498Z,47.19
2018-04-10T09:47:37.624Z,47.05
2018-04-10T09:50:05.981Z,46.63
2018-04-10T09:52:34.309Z,47.72
2018-04-10T09:55:03.691Z,45.83
2018-04-10T09:57:32.386Z,44.90
2018-04-10T10:00:00.777Z,45.37
2018-04-10T10:02:30.117Z,45.22
2018-04-10T10:04:58.521Z,42.21
2018-04-10T10:07:26.846Z,42.25
2018-04-10T10:09:55.424Z,43.57
2018-04-10T10:12:23.980Z,41.28
2018-04-10T10:14:52.679Z,43.70
2018-04-10T10:17:21.731Z,39.86
2018-04-10T10:19:50.128Z,40.67
2018-04-10T10:22:19.337Z,38.46
2018-04-10T10:24:47.784Z,40.85
2018-04-10T10:27:17.035Z,41.05
2018-04-10T10:29:45.391Z,41.12
2018-04-10T10:32:14.396Z,39.95
2018-04-10T10:34:42.754Z,40.74
2018-04-10T10:37:11.468Z,40.27
2018-04-10T10:39:40.593Z,41.23
2018-04-10T10:42:08.944Z,43.23
2018-04-10T10:44:37.264Z,42.61
2018-04-10T10:47:06.307Z,43.87
2018-04-10T10:49:34.749Z,43.04
2018-04-10T10:52:03.092Z,39.85
2018-04-10T10:54:31.419Z,40.60
2018-04-10T10:56:59.849Z,39.55
2018-04-10T10:59:28.812Z,38.56
2018-04-10T11:01:57.201Z,39.35
2018-04-10T11:04:25.964Z,40.72
2018-04-10T11:06:55.227Z,38.58
2018-04-10T11:09:23.557Z,38.97
2018-04-10T11:11:52.564Z,40.92
2018-04-10T11:14:21.940Z,38.86
2018-04-10T11:16:50.285Z,40.72
2018-04-10T11:19:19.356Z,39.37
2018-04-10T11:21:47.714Z,39.35
2018-04-10T11:24:16.497Z,39.86
2018-04-10T11:26:44.843Z,37.60
2018-04-10T11:29:13.990Z,40.01
2018-04-10T11:31:42.338Z,38.56
2018-04-10T11:34:11.017Z,38.43
2018-04-10T11:36:39.596Z,37.97
2018-04-10T11:39:07.938Z,35.79
2018-04-10T11:41:36.289Z,35.73
2018-04-10T11:44:04.770Z,37.05
2018-04-10T11:46:34.053Z,36.64
2018-04-10T11:49:02.469Z,36.19
2018-04-10T11:51:30.864Z,35.82
2018-04-10T11:53:59.195Z,35.37
2018-04-10T11:56:27.546Z,35.18
2018-04-10T11:58:55.862Z,36.32
2018-04-10T12:01:25.368Z,34.90
2018-04-10T12:03:54.128Z,34.29
2018-04-10T12:06:23.363Z,35.89
2018-04-10T12:08:52.040Z,35.28
2018-04-10T12:11:20.396Z,36.96
2018-04-10T12:13:48.782Z,34.76
2018-04-10T12:16:17.605Z,34.28
2018-04-10T12:18:46.645Z,33.71
2018-04-10T12:21:17.574Z,33.69
2018-04-10T12:23:47.196Z,33.74
2018-04-10T12:26:15.571Z,34.30
2018-04-10T12:28:44.689Z,35.00
2018-04-10T12:31:13.034Z,31.47
2018-04-10T12:33:42.210Z,31.93
2018-04-10T12:36:10.557Z,31.31
2018-04-10T12:38:39.870Z,31.08
2018-04-10T12:41:09.135Z,29.88
2018-04-10T12:43:37.516Z,30.61
2018-04-10T12:46:06.116Z,28.08
2018-04-10T12:48:34.461Z,27.92
2018-04-10T12:51:03.724Z,26.75
2018-04-10T12:53:32.194Z,26.46
2018-04-10T12:56:00.553Z,26.29
2018-04-10T12:58:30.657Z,26.84
2018-04-10T13:00:59.544Z,27.18
2018-04-10T13:03:28.825Z,26.62
2018-04-10T13:05:57.182Z,27.67
2018-04-10T13:08:25.504Z,27.59
2018-04-10T13:10:54.286Z,28.67
2018-04-10T13:13:24.222Z,30.14
2018-04-10T13:15:52.575Z,29.81
2018-04-10T13:18:21.151Z,28.67
2018-04-10T13:20:50.246Z,28.74
2018-04-10T13:23:18.593Z,28.80
2018-04-10T13:25:47.004Z,29.25
2018-04-10T13:28:15.367Z,28.79
2018-04-10T13:30:44.369Z,29.25
2018-04-10T13:33:13.613Z,28.91
2018-04-10T13:35:41.970Z,28.73
2018-04-10T13:38:10.331Z,29.12
2018-04-10T13:40:38.663Z,29.26
2018-04-10T13:43:07.017Z,29.44
2018-04-10T13:45:36.328Z,28.68
2018-04-10T13:48:05.686Z,28.42
2018-04-10T13:50:34.054Z,29.00
2018-04-10T13:53:03.217Z,29.05
2018-04-10T13:55:31.611Z,28.78
2018-04-10T13:57:59.959Z,28.62
2018-04-10T14:00:28.304Z,28.79
2018-04-10T14:02:56.687Z,29.24
2018-04-10T14:05:25.857Z,29.75
2018-04-10T14:07:54.226Z,29.89
2018-04-10T14:10:22.688Z,29.54
2018-04-10T14:12:51.756Z,28.85
2018-04-10T14:15:20.104Z,29.14
2018-04-10T14:17:48.461Z,30.65
2018-04-10T14:20:16.838Z,31.25
2018-04-10T14:22:46.607Z,30.77
2018-04-10T14:25:14.947Z,30.51
2018-04-10T14:27:43.643Z,29.85
2018-04-10T14:30:12.650Z,30.50
2018-04-10T14:32:41.260Z,30.63
2018-04-10T14:35:10.138Z,30.23
2018-04-10T14:37:38.725Z,31.07
2018-04-10T14:40:07.928Z,31.14
2018-04-10T14:42:36.522Z,30.61
2018-04-10T14:45:05.666Z,31.23
2018-04-10T14:47:34.774Z,31.94
2018-04-10T14:50:03.080Z,31.39
2018-04-10T14:52:33.094Z,31.12
2018-04-10T14:55:01.665Z,31.37
2018-04-10T14:57:30.339Z,31.97
2018-04-10T14:59:59.577Z,31.13
2018-04-10T15:02:27.945Z,31.84
2018-04-10T15:04:56.312Z,31.51
2018-04-10T15:07:24.676Z,32.10
2018-04-10T15:09:53.001Z,32.68
2018-04-10T15:12:22.406Z,32.53
2018-04-10T15:14:51.672Z,32.35
2018-04-10T15:17:20.043Z,32.29
2018-04-10T15:19:48.422Z,33.40
2018-04-10T15:22:18.341Z,33.06
2018-04-10T15:24:47.161Z,32.64
2018-04-10T15:27:15.574Z,32.59
2018-04-10T15:29:44.703Z,33.19
2018-04-10T15:32:13.816Z,37.20
2018-04-10T15:34:42.159Z,38.27
2018-04-10T15:37:12.543Z,41.30
2018-04-10T15:39:40.877Z,39.70
2018-04-10T15:42:09.237Z,40.96
2018-04-10T15:44:37.575Z,43.80
2018-04-10T15:47:06.010Z,42.90
2018-04-10T15:49:34.360Z,42.81
2018-04-10T15:52:03.647Z,42.64
2018-04-10T15:54:31.971Z,45.43
2018-04-10T15:57:00.588Z,45.79
2018-04-10T15:59:30.380Z,49.46
2018-04-10T16:01:59.149Z,48.42
2018-04-10T16:04:27.549Z,50.71
2018-04-10T16:06:55.886Z,55.01
2018-04-10T16:09:24.247Z,53.91
2018-04-10T16:11:53.607Z,44.47
2018-04-10T16:14:22.203Z,43.00
2018-04-10T16:16:51.447Z,46.81
2018-04-10T16:19:20.137Z,48.27
2018-04-10T16:21:49.200Z,50.72
2018-04-10T16:24:17.817Z,49.79
2018-04-10T16:26:48.850Z,49.73
2018-04-10T16:29:17.682Z,48.84
2018-04-10T16:31:46.017Z,51.05
2018-04-10T16:34:14.600Z,52.83
2018-04-10T16:36:43.260Z,56.68
2018-04-10T16:39:11.635Z,58.91
2018-04-10T16:41:40.872Z,59.36
2018-04-10T16:44:10.599Z,62.39
2018-04-10T16:46:38.931Z,61.35
2018-04-10T16:49:07.634Z,61.91
2018-04-10T16:51:35.993Z,63.97
2018-04-10T16:54:05.246Z,63.61
2018-04-10T16:56:34.768Z,63.89
2018-04-10T16:59:03.579Z,63.30
2018-04-10T17:01:32.835Z,63.49
2018-04-10T17:04:01.423Z,63.35
2018-04-10T17:06:31.337Z,64.16
2018-04-10T17:09:00.306Z,63.86
2018-04-10T17:11:28.824Z,63.81
2018-04-10T17:13:57.158Z,61.68
2018-04-10T17:16:25.518Z,60.01
2018-04-10T17:18:53.854Z,61.11
2018-04-10T17:21:22.783Z,60.97
2018-04-10T17:23:51.107Z,62.17
2018-04-10T17:26:19.818Z,62.90
2018-04-10T17:28:48.218Z,62.46
2018-04-10T17:31:19.234Z,61.39
2018-04-10T17:33:47.566Z,63.37
2018-04-10T17:36:15.924Z,62.19
2018-04-10T17:38:45.183Z,63.75
2018-04-10T17:41:14.472Z,61.35
2018-04-10T17:43:43.631Z,62.89
2018-04-10T17:46:12.001Z,62.99
2018-04-10T17:48:41.076Z,63.72
2018-04-10T17:51:10.167Z,62.68
2018-04-10T17:53:38.500Z,63.58
2018-04-10T17:56:07.089Z,63.23
2018-04-10T17:58:35.487Z,66.21
2018-04-10T18:01:03.857Z,67.04
2018-04-10T18:03:32.491Z,68.26
2018-04-10T18:06:02.026Z,69.89
2018-04-10T18:08:30.368Z,72.25
2018-04-10T18:10:58.811Z,71.37
2018-04-10T18:13:28.102Z,70.14
2018-04-10T18:15:56.445Z,68.24
2018-04-10T18:18:24.851Z,66.68
2018-04-10T18:20:53.204Z,65.94
2018-04-10T18:23:22.729Z,67.89
2018-04-10T18:25:51.808Z,71.51
2018-04-10T18:28:20.164Z,70.47
2018-04-10T18:30:48.736Z,71.63
2018-04-10T18:33:17.100Z,69.78
2018-04-10T18:35:45.668Z,69.62
2018-04-10T18:38:14.032Z,71.83
2018-04-10T18:40:42.375Z,72.69
2018-04-10T18:43:10.754Z,74.10
2018-04-10T18:45:39.207Z,71.89
2018-04-10T18:48:07.576Z,71.88
2018-04-10T18:50:36.520Z,71.95
2018-04-10T18:53:04.926Z,68.65
2018-04-10T18:55:34.071Z,69.33
2018-04-10T18:58:02.428Z,69.41
2018-04-10T19:00:30.760Z,71.59
2018-04-10T19:02:59.208Z,73.42
2018-04-10T19:05:27.625Z,74.10
2018-04-10T19:07:56.018Z,71.70
2018-04-10T19:10:24.344Z,72.51
2018-04-10T19:12:52.786Z,72.62
2018-04-10T19:15:21.164Z,75.13
2018-04-10T19:17:50.278Z,74.43
2018-04-10T19:20:18.622Z,75.51
2018-04-10T19:22:46.960Z,79.53
2018-04-10T19:25:16.181Z,79.69
2018-04-10T19:27:44.652Z,79.99
2018-04-10T19:30:13.078Z,79.12
2018-04-10T19:32:41.454Z,76.12
2018-04-10T19:35:09.861Z,75.41
2018-04-10T19:37:38.214Z,76.37
2018-04-10T19:40:06.566Z,76.04
2018-04-10T19:42:36.730Z,76.34
2018-04-10T19:45:06.227Z,76.51
2018-04-10T19:47:34.944Z,77.59
2018-04-10T19:50:03.309Z,78.73
2018-04-10T19:52:31.631Z,79.63
2018-04-10T19:54:59.979Z,79.30
2018-04-10T19:57:28.940Z,80.00
2018-04-10T19:59:57.355Z,80.45
2018-04-10T20:02:25.753Z,79.85
2018-04-10T20:04:54.099Z,80.20
2018-04-10T20:07:22.958Z,81.00
2018-04-10T20:09:51.378Z,80.84
2018-04-10T20:12:20.856Z,80.77
2018-04-10T20:14:49.201Z,80.77
2018-04-10T20:17:17.538Z,80.46
2018-04-10T20:19:46.498Z,80.34
2018-04-10T20:22:14.847Z,80.44
2018-04-10T20:24:43.206Z,80.36
2018-04-10T20:27:11.560Z,80.82
2018-04-10T20:29:39.965Z,80.92
2018-04-10T20:32:08.604Z,81.18
2018-04-10T20:34:37.797Z,81.52
2018-04-10T20:37:06.994Z,81.62
2018-04-10T20:39:35.339Z,81.95
2018-04-10T20:42:03.715Z,82.25
2018-04-10T20:44:32.699Z,82.79
2018-04-10T20:47:01.095Z,82.27
2018-04-10T20:49:29.882Z,82.72
2018-04-10T20:51:58.626Z,83.00
2018-04-10T20:54:26.978Z,83.14
2018-04-10T20:56:57.083Z,83.51
2018-04-10T20:59:25.702Z,83.58
2018-04-10T21:01:54.074Z,83.02
2018-04-10T21:04:22.652Z,82.60
2018-04-10T21:06:51.854Z,82.12
2018-04-10T21:09:20.196Z,81.75
2018-04-10T21:11:48.556Z,80.62
2018-04-10T21:14:16.910Z,80.03
2018-04-10T21:16:45.269Z,79.48
2018-04-10T21:19:13.936Z,79.19
2018-04-10T21:21:42.298Z,80.27
2018-04-10T21:24:10.771Z,80.67
2018-04-10T21:26:39.109Z,80.93
2018-04-10T21:29:07.487Z,81.09
2018-04-10T21:31:36.508Z,80.99
2018-04-10T21:34:05.106Z,80.59
2018-04-10T21:36:34.533Z,81.08
2018-04-10T21:39:03.943Z,79.75
2018-04-10T21:41:32.343Z,78.74
2018-04-10T21:44:00.708Z,80.22
2018-04-10T21:46:29.416Z,78.65
2018-04-10T21:48:58.701Z,78.21
2018-04-10T21:51:27.268Z,77.38
2018-04-10T21:53:55.622Z,77.72
2018-04-10T21:56:24.575Z,78.24
2018-04-10T21:58:53.272Z,77.79
2018-04-10T22:01:21.639Z,77.46
2018-04-10T22:03:50.096Z,78.12
2018-04-10T22:06:18.435Z,78.29
2018-04-10T22:08:46.852Z,77.94
2018-04-10T22:11:15.169Z,78.26
2018-04-10T22:13:43.549Z,78.08
2018-04-10T22:16:11.876Z,77.29
2018-04-10T22:18:40.845Z,76.60
2018-04-10T22:21:09.898Z,76.66
2018-04-10T22:23:38.759Z,76.23
2018-04-10T22:26:07.092Z,75.97
2018-04-10T22:28:36.334Z,74.58
2018-04-10T22:31:04.686Z,76.33
2018-04-10T22:33:33.221Z,76.47
2018-04-10T22:36:02.419Z,76.45
2018-04-10T22:38:30.818Z,76.29
2018-04-10T22:40:59.168Z,76.08
2018-04-10T22:43:28.749Z,75.24
2018-04-10T22:45:57.101Z,74.67
2018-04-10T22:48:25.434Z,74.64
2018-04-10T22:50:53.787Z,73.59
2018-04-10T22:53:22.234Z,74.88
2018-04-10T22:55:51.222Z,75.63
2018-04-10T22:58:19.567Z,74.59
2018-04-10T23:00:49.432Z,74.64
2018-04-10T23:03:20.432Z,74.11
2018-04-10T23:05:48.797Z,74.90
2018-04-10T23:08:17.124Z,75.31
2018-04-10T23:10:46.410Z,75.59
2018-04-10T23:13:14.810Z,75.35
2018-04-10T23:15:44.837Z,75.71
2018-04-10T23:18:13.194Z,75.20
2018-04-10T23:20:41.577Z,73.94
2018-04-10T23:23:09.903Z,75.33
2018-04-10T23:25:38.275Z,75.71
2018-04-10T23:28:06.971Z,76.58
2018-04-10T23:30:35.622Z,75.96
2018-04-10T23:33:04.225Z,76.42
2018-04-10T23:35:32.556Z,76.68
2018-04-10T23:38:00.914Z,76.89
2018-04-10T23:40:31.089Z,76.20
2018-04-10T23:42:59.676Z,75.97
2018-04-10T23:45:28.018Z,76.14
2018-04-10T23:47:56.418Z,76.55
2018-04-10T23:50:24.822Z,75.73
2018-04-10T23:52:53.897Z,75.12
2018-04-10T23:55:22.250Z,75.45
2018-04-10T23:57:50.602Z,74.80
